createdAt,value
2019-03-23T00:02:22.395Z,99.74
2019-03-23T00:04:51.041Z,100.00
2019-03-23T00:07:19.696Z,100.00
2019-03-23T00:09:48.088Z,100.00
2019-03-23T00:12:17.455Z,100.00
2019-03-23T00:14:46.247Z,100.00
2019-03-23T00:17:15.328Z,100.00
2019-03-23T00:19:44.125Z,100.00
2019-03-23T00:22:12.748Z,100.00
2019-03-23T00:24:41.151Z,100.00
2019-03-23T00:27:09.540Z,100.00
2019-03-23T00:29:37.940Z,100.00
2019-03-23T00:32:06.571Z,100.00
2019-03-23T00:34:34.978Z,100.00
2019-03-23T00:37:03.362Z,100.00
2019-03-23T00:39:32.055Z,100.00
2019-03-23T00:42:00.504Z,100.00
2019-03-23T00:44:29.132Z,100.00
2019-03-23T00:46:57.783Z,99.84
2019-03-23T00:49:26.170Z,100.00
2019-03-23T00:51:54.555Z,100.00
2019-03-23T00:54:23.017Z,100.00
2019-03-23T00:56:51.403Z,100.00
2019-03-23T00:59:19.800Z,100.00
2019-03-23T01:01:48.514Z,100.00
2019-03-23T01:04:17.152Z,100.00
2019-03-23T01:06:52.014Z,100.00
2019-03-23T01:09:16.119Z,100.00
2019-03-23T01:11:44.518Z,100.00
2019-03-23T01:14:13.170Z,100.00
2019-03-23T01:16:41.594Z,100.00
2019-03-23T01:19:10.211Z,100.00
2019-03-23T01:21:38.855Z,100.00
2019-03-23T01:24:07.251Z,100.00
2019-03-23T01:26:35.700Z,100.00
2019-03-23T01:29:04.100Z,100.00
2019-03-23T01:31:32.720Z,100.00
2019-03-23T01:34:01.340Z,100.00
2019-03-23T01:36:29.975Z,99.95
2019-03-23T01:38:58.364Z,100.00
2019-03-23T01:41:26.821Z,99.92
2019-03-23T01:43:55.204Z,100.00
2019-03-23T01:46:23.611Z,100.00
2019-03-23T01:48:52.243Z,100.00
2019-03-23T01:51:20.629Z,100.00
2019-03-23T01:53:49.028Z,100.00
2019-03-23T01:56:17.433Z,100.00
2019-03-23T01:58:46.073Z,100.00
2019-03-23T02:01:14.720Z,100.00
2019-03-23T02:03:43.352Z,100.00
2019-03-23T02:06:11.995Z,100.00
2019-03-23T02:08:40.621Z,100.00
2019-03-23T02:11:09.024Z,100.00
2019-03-23T02:13:37.416Z,100.00
2019-03-23T02:16:05.882Z,100.00
2019-03-23T02:18:34.277Z,100.00
2019-03-23T02:21:02.683Z,100.00
2019-03-23T02:23:31.317Z,100.00
2019-03-23T02:25:59.952Z,100.00
2019-03-23T02:28:28.342Z,100.00
2019-03-23T02:30:56.796Z,100.00
2019-03-23T02:33:25.438Z,100.00
2019-03-23T02:35:53.842Z,100.00
2019-03-23T02:38:22.228Z,100.00
2019-03-23T02:40:50.887Z,100.00
2019-03-23T02:43:19.320Z,100.00
2019-03-23T02:45:47.969Z,100.00
2019-03-23T02:48:16.363Z,100.00
2019-03-23T02:50:45.005Z,100.00
2019-03-23T02:53:13.400Z,100.00
2019-03-23T02:55:41.828Z,100.00
2019-03-23T02:58:10.224Z,100.00
2019-03-23T03:00:38.622Z,100.00
2019-03-23T03:03:07.262Z,100.00
2019-03-23T03:05:35.907Z,100.00
2019-03-23T03:08:04.314Z,100.00
2019-03-23T03:10:38.741Z,100.00
2019-03-23T03:13:07.496Z,100.00
2019-03-23T03:15:36.198Z,100.00
2019-03-23T03:18:06.282Z,100.00
2019-03-23T03:20:35.107Z,100.00
2019-03-23T03:23:03.810Z,100.00
2019-03-23T03:25:32.205Z,100.00
2019-03-23T03:28:00.612Z,100.00
2019-03-23T03:30:29.287Z,100.00
2019-03-23T03:32:57.875Z,100.00
2019-03-23T03:35:26.520Z,100.00
2019-03-23T03:37:56.894Z,100.00
2019-03-23T03:40:25.288Z,100.00
2019-03-23T03:42:53.686Z,100.00
2019-03-23T03:45:24.864Z,100.00
2019-03-23T03:47:53.311Z,100.00
2019-03-23T03:50:21.780Z,100.00
2019-03-23T03:52:50.181Z,100.00
2019-03-23T03:55:18.593Z,100.00
2019-03-23T03:57:47.253Z,100.00
2019-03-23T04:00:15.970Z,100.00
2019-03-23T04:02:44.377Z,100.00
2019-03-23T04:05:12.853Z,100.00
2019-03-23T04:07:41.483Z,100.00
2019-03-23T04:10:11.073Z,100.00
2019-03-23T04:12:39.540Z,100.00
2019-03-23T04:15:09.496Z,100.00
2019-03-23T04:17:37.883Z,100.00
2019-03-23T04:20:07.197Z,100.00
2019-03-23T04:22:35.813Z,100.00
2019-03-23T04:25:07.025Z,100.00
2019-03-23T04:27:35.670Z,100.00
2019-03-23T04:30:06.258Z,100.00
2019-03-23T04:32:35.048Z,100.00
2019-03-23T04:35:04.555Z,100.00
2019-03-23T04:37:32.948Z,100.00
2019-03-23T04:40:01.594Z,100.00
2019-03-23T04:42:30.224Z,100.00
2019-03-23T04:44:58.877Z,100.00
2019-03-23T04:47:27.528Z,100.00
2019-03-23T04:49:56.166Z,100.00
2019-03-23T04:52:24.559Z,100.00
2019-03-23T04:54:52.972Z,100.00
2019-03-23T04:57:21.370Z,100.00
2019-03-23T04:59:50.085Z,100.00
2019-03-23T05:02:18.730Z,100.00
2019-03-23T05:04:47.371Z,100.00
2019-03-23T05:07:16.014Z,100.00
2019-03-23T05:09:44.416Z,100.00
2019-03-23T05:12:13.060Z,100.00
2019-03-23T05:14:41.511Z,100.00
2019-03-23T05:17:10.108Z,100.00
2019-03-23T05:19:38.756Z,100.00
2019-03-23T05:22:07.392Z,100.00
2019-03-23T05:24:36.029Z,100.00
2019-03-23T05:27:04.430Z,100.00
2019-03-23T05:29:32.886Z,100.00
2019-03-23T05:32:01.284Z,100.00
2019-03-23T05:34:29.695Z,100.00
2019-03-23T05:36:58.090Z,100.00
2019-03-23T05:39:26.614Z,100.00
2019-03-23T05:41:55.250Z,100.00
2019-03-23T05:44:23.679Z,100.00
2019-03-23T05:46:54.237Z,100.00
2019-03-23T05:49:22.440Z,100.00
2019-03-23T05:51:50.831Z,100.00
2019-03-23T05:54:19.244Z,100.00
2019-03-23T05:56:47.637Z,100.00
2019-03-23T05:59:16.043Z,100.00
2019-03-23T06:01:44.677Z,100.00
2019-03-23T06:04:13.089Z,100.00
2019-03-23T06:06:41.479Z,100.00
2019-03-23T06:09:09.884Z,100.00
2019-03-23T06:11:38.292Z,100.00
2019-03-23T06:14:06.747Z,100.00
2019-03-23T06:16:35.211Z,100.00
2019-03-23T06:19:03.603Z,100.00
2019-03-23T06:21:32.008Z,100.00
2019-03-23T06:24:00.644Z,100.00
2019-03-23T06:26:29.319Z,100.00
2019-03-23T06:28:57.712Z,100.00
2019-03-23T06:31:26.333Z,100.00
2019-03-23T06:33:54.987Z,100.00
2019-03-23T06:36:23.386Z,100.00
2019-03-23T06:38:51.774Z,100.00
2019-03-23T06:41:20.431Z,100.00
2019-03-23T06:43:48.823Z,100.00
2019-03-23T06:46:17.454Z,100.00
2019-03-23T06:48:45.862Z,99.93
2019-03-23T06:51:14.475Z,99.39
2019-03-23T06:53:43.107Z,99.46
2019-03-23T06:56:11.746Z,99.58
2019-03-23T06:58:40.128Z,97.98
2019-03-23T07:01:08.511Z,97.30
2019-03-23T07:03:36.907Z,98.76
2019-03-23T07:06:05.290Z,97.98
2019-03-23T07:08:33.675Z,96.45
2019-03-23T07:11:02.327Z,96.43
2019-03-23T07:13:30.706Z,95.90
2019-03-23T07:15:59.088Z,95.85
2019-03-23T07:18:27.490Z,94.29
2019-03-23T07:20:56.109Z,93.54
2019-03-23T07:23:24.729Z,92.77
2019-03-23T07:25:53.365Z,91.69
2019-03-23T07:28:21.745Z,91.96
2019-03-23T07:30:50.127Z,92.02
2019-03-23T07:33:18.529Z,91.14
2019-03-23T07:35:47.223Z,91.62
2019-03-23T07:38:15.609Z,90.55
2019-03-23T07:40:44.243Z,90.05
2019-03-23T07:43:12.863Z,90.06
2019-03-23T07:45:41.246Z,87.10
2019-03-23T07:48:09.649Z,86.45
2019-03-23T07:50:38.038Z,87.11
2019-03-23T07:53:06.738Z,88.33
2019-03-23T07:55:35.138Z,86.37
2019-03-23T07:58:03.762Z,86.07
2019-03-23T08:00:32.196Z,85.01
2019-03-23T08:03:00.594Z,85.17
2019-03-23T08:05:28.978Z,85.58
2019-03-23T08:07:57.358Z,85.03
2019-03-23T08:10:29.948Z,83.20
2019-03-23T08:12:58.323Z,83.41
2019-03-23T08:15:27.022Z,81.72
2019-03-23T08:17:55.880Z,82.30
2019-03-23T08:20:24.811Z,81.89
2019-03-23T08:22:54.262Z,82.33
2019-03-23T08:25:22.900Z,81.36
2019-03-23T08:27:51.290Z,80.09
2019-03-23T08:30:19.661Z,79.64
2019-03-23T08:32:48.310Z,79.58
2019-03-23T08:35:16.922Z,79.41
2019-03-23T08:37:45.548Z,78.72
2019-03-23T08:40:14.015Z,76.72
2019-03-23T08:42:42.462Z,77.35
2019-03-23T08:45:11.152Z,76.11
2019-03-23T08:47:39.800Z,76.22
2019-03-23T08:50:08.254Z,75.65
2019-03-23T08:52:36.634Z,74.32
2019-03-23T08:55:06.271Z,75.14
2019-03-23T08:57:34.722Z,73.78
2019-03-23T09:00:03.345Z,73.43
2019-03-23T09:02:31.748Z,72.79
2019-03-23T09:05:00.389Z,72.37
2019-03-23T09:07:28.738Z,72.41
2019-03-23T09:09:59.443Z,71.79
2019-03-23T09:12:27.494Z,71.14
2019-03-23T09:14:56.111Z,70.19
2019-03-23T09:17:24.743Z,70.21
2019-03-23T09:19:53.132Z,68.74
2019-03-23T09:22:21.763Z,68.92
2019-03-23T09:24:50.405Z,67.21
2019-03-23T09:27:19.026Z,67.08
2019-03-23T09:29:47.417Z,67.10
2019-03-23T09:32:16.067Z,66.81
2019-03-23T09:34:44.696Z,66.81
2019-03-23T09:37:13.329Z,64.60
2019-03-23T09:39:41.972Z,64.50
2019-03-23T09:42:10.364Z,61.84
2019-03-23T09:44:38.998Z,60.12
2019-03-23T09:47:07.639Z,60.12
2019-03-23T09:49:36.259Z,60.07
2019-03-23T09:52:04.646Z,59.92
2019-03-23T09:54:33.285Z,59.86
2019-03-23T09:57:01.667Z,61.17
2019-03-23T09:59:30.290Z,59.32
2019-03-23T10:01:58.693Z,59.32
2019-03-23T10:04:27.332Z,58.04
2019-03-23T10:06:55.718Z,57.81
2019-03-23T10:09:24.125Z,56.92
2019-03-23T10:11:52.509Z,56.92
2019-03-23T10:14:20.891Z,55.53
2019-03-23T10:16:49.297Z,56.39
2019-03-23T10:19:17.689Z,52.13
2019-03-23T10:21:46.079Z,55.00
2019-03-23T10:24:14.710Z,53.59
2019-03-23T10:26:43.334Z,51.45
2019-03-23T10:29:11.729Z,52.04
2019-03-23T10:31:40.371Z,52.04
2019-03-23T10:34:09.079Z,53.04
2019-03-23T10:36:37.467Z,53.04
2019-03-23T10:39:06.852Z,52.33
2019-03-23T10:41:37.572Z,52.33
2019-03-23T10:44:05.732Z,49.10
2019-03-23T10:46:34.356Z,49.10
2019-03-23T10:49:02.989Z,49.59
2019-03-23T10:51:31.624Z,49.65
2019-03-23T10:54:00.254Z,50.45
2019-03-23T10:56:28.660Z,49.94
2019-03-23T10:58:57.046Z,47.29
2019-03-23T11:01:25.669Z,47.22
2019-03-23T11:03:54.069Z,47.05
2019-03-23T11:06:22.455Z,46.27
2019-03-23T11:08:50.861Z,46.27
2019-03-23T11:11:19.248Z,45.87
2019-03-23T11:13:47.632Z,44.82
2019-03-23T11:16:16.269Z,46.01
2019-03-23T11:18:44.898Z,45.41
2019-03-23T11:21:13.300Z,45.94
2019-03-23T11:23:41.924Z,45.37
2019-03-23T11:26:10.543Z,45.42
2019-03-23T11:28:38.944Z,46.33
2019-03-23T11:31:07.334Z,47.50
2019-03-23T11:33:35.739Z,45.78
2019-03-23T11:36:04.377Z,45.55
2019-03-23T11:38:32.779Z,46.65
2019-03-23T11:41:01.164Z,47.29
2019-03-23T11:43:29.800Z,47.39
2019-03-23T11:45:58.196Z,47.20
2019-03-23T11:48:26.641Z,46.97
2019-03-23T11:50:55.044Z,47.58
2019-03-23T11:53:23.669Z,50.50
2019-03-23T11:55:52.291Z,47.71
2019-03-23T11:58:20.927Z,48.32
2019-03-23T12:00:49.318Z,48.55
2019-03-23T12:03:17.962Z,47.88
2019-03-23T12:05:46.591Z,46.79
2019-03-23T12:08:15.217Z,47.12
2019-03-23T12:10:43.864Z,48.36
2019-03-23T12:13:12.260Z,48.16
2019-03-23T12:15:40.891Z,48.13
2019-03-23T12:18:09.517Z,47.27
2019-03-23T12:20:37.909Z,47.51
2019-03-23T12:23:06.303Z,47.79
2019-03-23T12:25:34.686Z,45.90
2019-03-23T12:28:03.090Z,46.95
2019-03-23T12:30:31.480Z,45.81
2019-03-23T12:32:59.877Z,47.47
2019-03-23T12:35:28.280Z,45.91
2019-03-23T12:37:56.668Z,46.08
2019-03-23T12:40:25.078Z,44.46
2019-03-23T12:42:53.472Z,47.08
2019-03-23T12:45:21.856Z,45.14
2019-03-23T12:47:50.258Z,45.03
2019-03-23T12:50:18.648Z,43.68
2019-03-23T12:52:47.055Z,42.28
2019-03-23T12:55:15.677Z,41.85
2019-03-23T12:57:44.070Z,42.00
2019-03-23T13:00:14.898Z,42.11
2019-03-23T13:02:43.353Z,41.08
2019-03-23T13:05:12.128Z,41.34
2019-03-23T13:07:40.566Z,41.59
2019-03-23T13:10:13.472Z,41.38
2019-03-23T13:12:42.174Z,41.28
2019-03-23T13:15:16.032Z,42.45
2019-03-23T13:17:44.439Z,40.49
2019-03-23T13:20:13.461Z,41.25
2019-03-23T13:22:42.024Z,40.75
2019-03-23T13:25:10.894Z,41.14
2019-03-23T13:27:39.347Z,40.72
2019-03-23T13:30:10.786Z,39.99
2019-03-23T13:32:39.487Z,40.13
2019-03-23T13:35:08.172Z,40.97
2019-03-23T13:37:36.567Z,40.52
2019-03-23T13:40:07.465Z,40.61
2019-03-23T13:42:35.864Z,40.88
2019-03-23T13:45:07.028Z,40.82
2019-03-23T13:47:35.720Z,41.85
2019-03-23T13:50:05.511Z,40.48
2019-03-23T13:52:33.895Z,39.82
2019-03-23T13:55:02.300Z,39.94
2019-03-23T13:57:30.920Z,39.67
2019-03-23T13:59:59.547Z,40.10
2019-03-23T14:02:28.037Z,39.63
2019-03-23T14:04:56.435Z,39.95
2019-03-23T14:07:25.073Z,40.09
2019-03-23T14:09:53.695Z,39.94
2019-03-23T14:12:22.107Z,41.52
2019-03-23T14:14:50.755Z,39.38
2019-03-23T14:17:19.380Z,39.97
2019-03-23T14:19:48.013Z,39.55
2019-03-23T14:22:16.708Z,39.96
2019-03-23T14:24:45.102Z,39.93
2019-03-23T14:27:13.499Z,40.08
2019-03-23T14:29:42.128Z,39.93
2019-03-23T14:32:10.772Z,39.92
2019-03-23T14:34:39.409Z,39.88
2019-03-23T14:37:07.952Z,39.78
2019-03-23T14:39:36.349Z,39.66
2019-03-23T14:42:05.360Z,39.45
2019-03-23T14:44:33.758Z,40.12
2019-03-23T14:47:02.195Z,40.99
2019-03-23T14:49:30.822Z,40.09
2019-03-23T14:51:59.482Z,40.08
2019-03-23T14:54:28.117Z,40.65
2019-03-23T14:56:56.522Z,40.98
2019-03-23T14:59:25.146Z,40.44
2019-03-23T15:01:53.773Z,40.68
2019-03-23T15:04:22.183Z,40.86
2019-03-23T15:06:50.568Z,41.38
2019-03-23T15:09:18.979Z,40.89
2019-03-23T15:11:47.972Z,41.14
2019-03-23T15:14:17.186Z,40.87
2019-03-23T15:16:45.833Z,41.29
2019-03-23T15:19:15.686Z,41.38
2019-03-23T15:21:44.363Z,41.53
2019-03-23T15:24:12.754Z,41.30
2019-03-23T15:26:41.142Z,41.41
2019-03-23T15:29:09.535Z,41.76
2019-03-23T15:31:37.923Z,41.46
2019-03-23T15:34:06.325Z,42.24
2019-03-23T15:36:34.710Z,41.44
2019-03-23T15:39:04.367Z,42.00
2019-03-23T15:41:32.771Z,41.56
2019-03-23T15:44:01.149Z,41.94
2019-03-23T15:46:29.562Z,41.48
2019-03-23T15:48:58.188Z,41.99
2019-03-23T15:51:26.646Z,41.97
2019-03-23T15:53:55.283Z,41.98
2019-03-23T15:56:23.671Z,41.42
2019-03-23T15:58:52.394Z,41.55
2019-03-23T16:01:20.861Z,41.47
2019-03-23T16:03:49.243Z,41.38
2019-03-23T16:06:17.872Z,42.06
2019-03-23T16:08:46.260Z,42.34
2019-03-23T16:11:14.663Z,41.61
2019-03-23T16:13:43.283Z,42.29
2019-03-23T16:16:11.677Z,42.00
2019-03-23T16:18:40.074Z,42.07
2019-03-23T16:21:08.461Z,42.67
2019-03-23T16:23:36.862Z,42.84
2019-03-23T16:26:05.247Z,43.28
2019-03-23T16:28:33.633Z,42.21
2019-03-23T16:31:02.030Z,43.20
2019-03-23T16:33:30.417Z,42.14
2019-03-23T16:35:59.065Z,42.38
2019-03-23T16:38:27.452Z,42.55
2019-03-23T16:40:55.835Z,42.59
2019-03-23T16:43:24.467Z,43.20
2019-03-23T16:45:53.265Z,43.41
2019-03-23T16:48:21.674Z,43.65
2019-03-23T16:50:50.294Z,44.63
2019-03-23T16:53:18.683Z,43.40
2019-03-23T16:55:47.311Z,44.04
2019-03-23T16:58:16.565Z,44.41
2019-03-23T17:00:45.151Z,44.83
2019-03-23T17:03:13.808Z,45.06
2019-03-23T17:05:42.506Z,46.15
2019-03-23T17:08:11.153Z,46.32
2019-03-23T17:10:39.785Z,45.85
2019-03-23T17:13:08.195Z,45.82
2019-03-23T17:15:36.657Z,46.06
2019-03-23T17:18:05.371Z,46.51
2019-03-23T17:20:33.765Z,46.51
2019-03-23T17:23:02.158Z,48.08
2019-03-23T17:25:30.876Z,48.47
2019-03-23T17:27:59.509Z,47.84
2019-03-23T17:30:28.141Z,48.27
2019-03-23T17:32:56.545Z,49.68
2019-03-23T17:35:25.269Z,51.97
2019-03-23T17:37:53.663Z,51.97
2019-03-23T17:40:22.056Z,52.36
2019-03-23T17:42:50.468Z,52.70
2019-03-23T17:45:18.874Z,53.96
2019-03-23T17:47:47.535Z,52.73
2019-03-23T17:50:15.928Z,54.82
2019-03-23T17:52:44.650Z,54.82
2019-03-23T17:55:13.229Z,57.62
2019-03-23T17:57:41.623Z,57.09
2019-03-23T18:00:11.341Z,57.09
2019-03-23T18:02:39.801Z,57.25
2019-03-23T18:05:09.172Z,57.85
2019-03-23T18:07:37.650Z,57.85
2019-03-23T18:10:08.816Z,57.56
2019-03-23T18:12:37.219Z,54.04
2019-03-23T18:15:07.348Z,54.04
2019-03-23T18:17:35.782Z,55.01
2019-03-23T18:20:05.265Z,56.88
2019-03-23T18:22:33.849Z,58.29
2019-03-23T18:25:02.304Z,59.00
2019-03-23T18:27:30.928Z,58.04
2019-03-23T18:29:59.567Z,60.03
2019-03-23T18:32:28.191Z,56.73
2019-03-23T18:34:56.629Z,59.95
2019-03-23T18:37:25.009Z,59.95
2019-03-23T18:39:53.636Z,60.49
2019-03-23T18:42:22.043Z,57.92
2019-03-23T18:44:50.681Z,57.92
2019-03-23T18:47:19.318Z,58.80
2019-03-23T18:49:47.723Z,63.00
2019-03-23T18:52:16.118Z,63.00
2019-03-23T18:54:44.753Z,62.63
2019-03-23T18:57:13.160Z,64.96
2019-03-23T18:59:41.558Z,64.04
2019-03-23T19:02:10.176Z,65.39
2019-03-23T19:04:38.580Z,65.50
2019-03-23T19:07:07.226Z,62.17
2019-03-23T19:09:35.614Z,58.83
2019-03-23T19:12:04.024Z,58.66
2019-03-23T19:14:32.413Z,62.11
2019-03-23T19:17:01.058Z,61.12
2019-03-23T19:19:29.470Z,60.69
2019-03-23T19:21:57.855Z,60.86
2019-03-23T19:24:26.524Z,61.07
2019-03-23T19:26:55.164Z,61.66
2019-03-23T19:29:23.560Z,62.17
2019-03-23T19:31:52.185Z,63.93
2019-03-23T19:34:20.907Z,63.82
2019-03-23T19:36:49.292Z,68.19
2019-03-23T19:39:17.696Z,68.19
2019-03-23T19:41:46.344Z,68.47
2019-03-23T19:44:14.863Z,67.42
2019-03-23T19:46:43.318Z,69.11
2019-03-23T19:49:11.724Z,66.91
2019-03-23T19:51:40.373Z,67.16
2019-03-23T19:54:08.762Z,67.16
2019-03-23T19:56:37.187Z,69.37
2019-03-23T19:59:05.569Z,69.84
2019-03-23T20:01:34.017Z,70.74
2019-03-23T20:04:02.659Z,68.89
2019-03-23T20:06:31.296Z,71.31
2019-03-23T20:08:59.770Z,71.37
2019-03-23T20:11:28.498Z,71.03
2019-03-23T20:13:58.964Z,67.54
2019-03-23T20:16:27.333Z,68.03
2019-03-23T20:18:55.865Z,67.66
2019-03-23T20:21:24.257Z,68.95
2019-03-23T20:23:52.891Z,68.44
2019-03-23T20:26:21.301Z,68.69
2019-03-23T20:28:49.749Z,69.02
2019-03-23T20:31:18.169Z,69.39
2019-03-23T20:33:46.904Z,69.83
2019-03-23T20:36:15.385Z,70.51
2019-03-23T20:38:44.015Z,69.10
2019-03-23T20:41:12.430Z,68.69
2019-03-23T20:43:41.125Z,68.68
2019-03-23T20:46:09.513Z,69.14
2019-03-23T20:48:38.489Z,70.97
2019-03-23T20:51:07.125Z,71.23
2019-03-23T20:53:35.656Z,71.25
2019-03-23T20:56:10.145Z,71.12
2019-03-23T20:58:44.308Z,72.19
2019-03-23T21:01:12.934Z,72.92
2019-03-23T21:03:41.574Z,73.60
2019-03-23T21:06:12.531Z,74.58
2019-03-23T21:08:40.552Z,75.60
2019-03-23T21:11:09.904Z,75.70
2019-03-23T21:13:38.360Z,76.88
2019-03-23T21:16:09.023Z,78.27
2019-03-23T21:18:37.387Z,79.31
2019-03-23T21:21:06.688Z,78.92
2019-03-23T21:23:35.076Z,78.91
2019-03-23T21:26:03.491Z,80.18
2019-03-23T21:28:32.112Z,80.55
2019-03-23T21:31:00.572Z,81.96
2019-03-23T21:33:32.083Z,83.04
2019-03-23T21:36:01.301Z,83.86
2019-03-23T21:38:29.787Z,84.91
2019-03-23T21:40:58.281Z,84.88
2019-03-23T21:43:26.917Z,84.35
2019-03-23T21:45:55.557Z,84.63
2019-03-23T21:48:23.956Z,84.71
2019-03-23T21:50:52.353Z,85.04
2019-03-23T21:53:20.749Z,85.98
2019-03-23T21:55:49.393Z,86.29
2019-03-23T21:58:17.792Z,87.58
2019-03-23T22:00:46.192Z,87.81
2019-03-23T22:03:14.588Z,88.48
2019-03-23T22:05:43.220Z,89.19
2019-03-23T22:08:11.624Z,90.13
2019-03-23T22:10:40.012Z,90.57
2019-03-23T22:13:08.649Z,90.82
2019-03-23T22:15:37.056Z,91.15
2019-03-23T22:18:05.762Z,91.28
2019-03-23T22:20:34.154Z,91.07
2019-03-23T22:23:02.790Z,91.25
2019-03-23T22:25:31.194Z,92.05
2019-03-23T22:27:59.648Z,92.57
2019-03-23T22:30:28.062Z,92.93
2019-03-23T22:32:56.684Z,93.47
2019-03-23T22:35:25.330Z,93.72
2019-03-23T22:37:53.727Z,95.00
2019-03-23T22:40:22.127Z,94.86
2019-03-23T22:42:50.752Z,94.92
2019-03-23T22:45:19.335Z,95.22
2019-03-23T22:47:47.969Z,95.69
2019-03-23T22:50:16.374Z,96.16
2019-03-23T22:52:44.759Z,96.98
2019-03-23T22:55:13.393Z,97.02
2019-03-23T22:57:41.891Z,97.41
2019-03-23T23:00:17.449Z,97.01
2019-03-23T23:02:46.211Z,97.70
2019-03-23T23:05:14.918Z,97.76
2019-03-23T23:07:43.303Z,97.96
2019-03-23T23:10:12.195Z,98.34
2019-03-23T23:12:40.819Z,98.00
2019-03-23T23:15:09.606Z,98.47
2019-03-23T23:17:38.231Z,99.31
2019-03-23T23:20:07.804Z,99.56
2019-03-23T23:22:36.189Z,99.83
2019-03-23T23:25:07.269Z,100.00
2019-03-23T23:27:36.083Z,100.00
2019-03-23T23:30:07.464Z,100.00
2019-03-23T23:32:36.249Z,100.00
2019-03-23T23:35:08.821Z,100.00
2019-03-23T23:37:38.368Z,100.00
2019-03-23T23:40:07.771Z,100.00
2019-03-23T23:42:36.469Z,100.00
2019-03-23T23:45:15.373Z,100.00
2019-03-23T23:47:38.967Z,100.00
2019-03-23T23:50:09.407Z,100.00
2019-03-23T23:52:38.109Z,100.00
2019-03-23T23:55:07.157Z,100.00
2019-03-23T23:57:35.541Z,100.00
